Station: Point Avoid

  Atmospheric Gas Attenuation - ITU Rec 676-11   --------------- db/100km ---------------
Date Time Temp RH % AH g/m3 Dew Point Wind Direction Speed kph Gust kph Barometer mB Rainfall Since 9am 24GHz 47GHz 76GHz 122GHz 134GHz 241GHz
15 02:00 14 79 9.53 10.4 24 33 1019 0.2 21.6 27.6 43.8 114.9 111.1 383.0
15 01:50 14 79 9.53 10.4 28 30 1013.1 0.2 21.6 27.4 43.5 114.3 110.6 381.2
15 01:40 14.1 81 9.83 10.9 22 28 1013.1 0.2 22.2 27.8 44.7 117.5 114.6 395.0
15 01:30 14.1 79 9.59 10.5 26 33 1019.1 0.2 21.7 27.7 44.0 115.5 111.8 385.4
15 01:20 14.2 80 9.77 10.8 20 24 1013.1 0.2 22.1 27.7 44.4 116.6 113.6 391.7
15 01:10 14.1 80 9.71 10.7 19 22 1013.1 0.2 22.0 27.6 44.2 116.1 112.9 389.3
15 01:00 14.2 78 9.52 10.4 24 30 1019.3 0.2 21.5 27.5 43.6 114.6 110.7 381.6
15 00:50 14.3 79 9.71 10.7 26 30 1013.1 0.2 21.9 27.6 44.1 115.8 112.6 388.3
15 00:40 14.2 80 9.77 10.8 24 30 1013.1 0.2 22.1 27.7 44.4 116.6 113.6 391.7
15 00:30 14.1 81 9.83 10.9 20 28 1019.2 0.2 22.2 28.1 45.0 118.2 115.1 396.9
15 00:20 13.9 84 10.07 11.2 22 26 1013.1 0.2 22.7 28.3 45.8 120.5 118.2 407.7
15 00:10 13.8 83 9.89 10.9 22 28 1013.1 0.2 22.4 28.0 45.1 118.6 115.8 399.5
15 00:00 13.7 83 9.83 10.9 24 33 1019.2 0.2 22.2 28.2 45.2 118.8 115.7 399.0
14 23:50 14 83 10.01 11.1 30 33 1013.1 0.2 22.6 28.2 45.5 119.6 117.2 404.2
14 23:40 13.9 81 9.71 10.8 32 35 1013.1 0.2 22.0 27.7 44.3 116.4 113.2 390.3
14 23:30 13.8 82 9.77 10.8 28 39 1018.8 0.2 22.1 28.0 44.9 117.9 114.7 395.5
14 23:20 13.9 84 10.07 11.2 26 30 1013.1 0.2 22.7 28.3 45.8 120.5 118.2 407.7
14 23:10 14 84 10.13 11.3 22 28 1013.1 0.2 22.9 28.4 46.0 121.0 118.9 410.1
14 23:00 13.9 83 9.95 11 30 37 1013.1 0.2 22.5 28.1 45.3 119.1 116.5 401.9
14 22:50 14.2 84 10.26 11.5 32 37 1013.1 0.2 23.1 28.5 46.4 122.1 120.4 415.3
14 22:40 14 86 10.37 11.7 26 30 1013.1 0.2 23.4 28.8 47.0 123.7 122.2 421.8
14 22:30 14 88 10.61 12 19 24 1013.1 0.2 23.9 29.2 48.0 126.5 125.6 433.6
14 22:20 13.8 89 10.6 12 26 30 1013.1 0.2 23.9 29.2 48.1 126.7 125.8 434.2
14 22:10 13.9 89 10.67 12.1 30 33 1013.1 0.2 24.0 29.3 48.4 127.3 126.6 437.1
14 22:00 13.9 90 10.79 12.3 28 37 1018.4 0.2 24.3 29.8 49.2 129.3 128.8 444.9
14 21:50 13.9 89 10.67 12.2 24 30 1013.1 0.2 24.0 29.3 48.4 127.3 126.6 437.1
14 21:40 13.8 89 10.6 12.1 24 33 1013.1 0.2 23.9 29.2 48.1 126.7 125.8 434.2
14 21:30 13.9 91 10.91 12.5 26 35 1018.3 0.2 24.5 30.0 49.7 130.7 130.6 450.9
14 21:20 14.1 91 11.04 12.6 20 24 1013.1 0.2 24.8 29.9 49.8 131.3 131.5 454.4
14 21:10 13.9 86 10.31 11.6 30 35 1013.1 0 23.2 28.7 46.8 123.2 121.5 419.4
14 21:00 13.5 86 10.06 11.2 30 39 1018.3 0 22.7 28.6 46.2 121.6 119.1 411.0
14 20:50 13.6 92 10.83 12.3 28 33 1013.1 0 24.4 29.7 49.2 129.7 129.4 446.8
14 20:40 13.9 86 10.31 11.7 35 41 1013.1 0 23.2 28.7 46.8 123.2 121.5 419.4
14 20:30 13.8 87 10.37 11.7 26 35 1018.1 0 23.4 29.0 47.4 124.6 123.0 424.5
14 20:20 14.2 89 10.87 12.4 24 28 1013.1 0 24.4 29.6 49.0 129.1 128.9 445.3
14 20:10 14.2 85 10.38 11.7 22 28 1013.1 0 23.4 28.7 46.9 123.5 122.0 421.2
14 20:00 14.2 84 10.26 11.5 30 33 1013.1 0 23.1 28.5 46.4 122.1 120.4 415.3
14 19:50 14.2 84 10.26 11.5 28 32 1013.1 0 23.1 28.5 46.4 122.1 120.4 415.3
14 19:40 14.2 85 10.38 11.7 26 32 1013.1 0 23.4 28.7 46.9 123.5 122.0 421.2
14 19:30 14.3 85 10.44 11.8 26 30 1013.1 0 23.5 28.8 47.1 124.0 122.7 423.6
14 19:20 14.3 86 10.57 12 24 30 1013.1 0 23.8 29.0 47.7 125.5 124.5 429.9
14 19:10 14.2 88 10.75 12.2 20 24 1013.1 0 24.2 29.4 48.5 127.7 127.2 439.4
14 19:00 14.5 85 10.57 12 24 28 1013.1 0 23.8 29.0 47.6 125.2 124.2 428.8
14 18:50 14.2 84 10.26 11.5 24 30 1013.1 0 23.1 28.5 46.4 122.1 120.4 415.3
14 18:40 14.4 83 10.26 11.5 24 28 1013.1 0 23.1 28.5 46.3 121.8 120.0 414.2
14 18:30 14.5 83 10.32 11.7 24 32 1016.7 0 23.2 28.7 46.7 122.8 121.1 417.8
14 18:20 14.4 81 10.01 11.3 20 24 1013.1 0 22.6 28.0 45.3 119.0 116.6 402.2
14 18:10 14.4 84 10.38 11.7 26 32 1013.1 0 23.4 28.7 46.8 123.2 121.7 420.1
14 18:00 14.5 82 10.2 11.5 24 33 1016.5 0 23.0 28.5 46.2 121.4 119.4 411.9
14 17:50 14.6 82 10.26 11.5 28 32 1013.1 0 23.1 28.4 46.2 121.5 119.7 413.2
14 17:40 14.7 82 10.32 11.6 22 28 1013.1 0 23.2 28.5 46.4 122.0 120.4 415.6
14 17:30 14.6 82 10.26 11.6 24 33 1016 0 23.1 28.5 46.3 121.9 120.0 414.1
14 17:20 14.7 82 10.32 11.6 26 30 1013.1 0 23.2 28.5 46.4 122.0 120.4 415.6
14 17:10 14.8 82 10.39 11.7 22 28 1013.1 0 23.4 28.6 46.6 122.7 121.2 418.4
14 17:00 15 80 10.26 11.7 28 32 1013.1 0 23.1 28.3 46.0 120.9 119.1 411.1
14 16:50 15.5 81 10.71 12.2 28 32 1013.1 0 24.0 28.9 47.6 125.2 124.5 430.1
14 16:40 15.7 82 10.97 12.6 28 32 1013.1 0 24.6 29.2 48.5 127.8 127.8 441.6
14 16:30 16.1 81 11.1 12.8 24 28 1013.1 0 24.8 29.3 48.8 128.6 129.0 445.7
14 16:20 15.7 78 10.44 12 28 33 1013.1 0 23.4 28.3 46.3 121.8 120.5 416.0
14 16:10 15.7 80 10.7 12.2 28 30 1013.1 0 24.0 28.8 47.4 124.7 124.1 428.5
14 16:00 16.2 79 10.89 12.5 26 30 1013.1 0 24.4 28.9 47.9 126.1 125.9 434.9
14 15:50 16.1 79 10.83 12.4 22 26 1013.1 0 24.2 28.9 47.7 125.5 125.2 432.6
14 15:40 16.2 79 10.89 12.5 19 22 1013.1 0 24.4 28.9 47.9 126.1 125.9 434.9
14 15:30 16.4 77 10.75 12.3 24 28 1013.1 0 24.0 28.6 47.2 124.2 123.6 427.1
14 15:20 16.2 76 10.48 12.1 28 32 1013.1 0 23.5 28.2 46.2 121.5 120.2 415.2
14 15:10 16.5 77 10.81 12.4 28 33 1013.1 0 24.2 28.7 47.4 124.7 124.3 429.4
14 15:00 16.4 75 10.47 12 24 33 1014.2 0 23.4 28.2 46.1 121.2 119.9 414.0
14 14:50 16.7 77 10.94 12.6 24 28 1013.1 0 24.4 28.9 47.8 125.8 125.8 434.5
14 14:40 16.7 76 10.8 12.4 22 28 1013.1 0 24.1 28.6 47.2 124.2 123.8 427.8
14 14:30 16.7 76 10.8 12.4 22 26 1013.1 0 24.1 28.6 47.2 124.2 123.8 427.8
14 14:20 16.9 77 11.07 12.8 20 24 1013.1 0 24.7 29.0 48.2 126.9 127.2 439.7
14 14:10 16.6 77 10.88 12.5 24 30 1013.1 0 24.3 28.8 47.6 125.3 125.1 432.2
14 14:00 16.4 77 10.75 12.4 24 30 1013.6 0 24.0 28.7 47.2 124.2 123.7 427.2
14 13:50 16.6 79 11.16 12.9 22 28 1013.1 0 24.9 29.3 48.8 128.4 129.0 445.7
14 13:40 16.9 78 11.22 13 20 24 1013.1 0 25.0 29.3 48.8 128.6 129.3 446.9
14 13:30 16.7 78 11.08 12.8 26 30 1013.1 0 24.7 29.1 48.4 127.4 127.7 441.3
14 13:20 16.8 78 11.15 12.9 22 24 1013.1 0 24.9 29.2 48.6 128.0 128.5 444.1
14 13:10 16.9 79 11.36 13.2 20 22 1013.1 0 25.3 29.5 49.4 130.2 131.2 453.7
14 13:00 16.9 79 11.36 13.2 19 26 1013.7 0 25.3 29.5 49.5 130.3 131.3 453.9
14 12:50 17 79 11.43 13.3 19 20 1013.1 0 25.5 29.6 49.7 130.8 132.0 456.5
14 12:40 16.7 82 11.65 13.6 19 22 1013.1 0 26.0 30.1 50.8 133.8 135.6 469.1
14 12:30 15.8 87 11.71 13.6 19 24 1013.9 0 26.1 30.5 51.7 136.2 138.2 477.9
14 12:20 15.9 88 11.92 13.9 19 22 1013.1 0 26.6 30.8 52.5 138.4 140.9 487.5
14 12:10 16.5 83 11.65 13.6 22 28 1013.1 0 26.0 30.1 50.9 134.2 136.0 470.3
14 12:00 17.5 82 12.22 14.5 20 26 1013.1 0 27.1 30.8 52.7 139.0 142.2 492.2
14 11:50 17.1 82 11.94 14 22 26 1013.1 0 26.6 30.4 51.8 136.5 139.0 480.9
14 11:40 17.5 82 12.22 14.5 20 24 1013.1 0 27.1 30.8 52.7 139.0 142.2 492.2
14 11:30 17.1 85 12.37 14.5 20 24 1013.1 0 27.5 31.2 53.7 141.5 145.1 502.3
14 11:20 17 83 12.01 14.1 22 24 1013.1 0 26.7 30.6 52.2 137.5 140.2 485.0
14 11:10 17.1 85 12.37 14.5 19 22 1013.1 0 27.5 31.2 53.7 141.5 145.1 502.3
14 11:00 16.8 86 12.29 14.4 19 20 1013.1 0 27.3 31.2 53.5 141.1 144.6 500.2
14 10:50 16.8 85 12.15 14.2 17 19 1013.1 0 27.0 30.9 52.9 139.4 142.6 493.2
14 10:40 16.7 88 12.51 14.7 17 20 1013.1 0 27.8 31.6 54.6 143.8 147.9 512.0
14 10:30 16.6 90 12.71 14.9 15 17 1013.1 0 28.2 32.0 55.5 146.4 151.0 522.8
14 10:20 16.3 91 12.62 14.8 15 19 1013.1 0 28.1 31.9 55.3 145.9 150.3 520.2
14 10:10 16.4 93 12.98 15.2 15 15 1013.1 0 28.8 32.5 56.9 150.0 155.4 538.0
14 10:00 15.8 93 12.52 14.7 13 17 1014 0 27.9 32.0 55.3 145.8 150.0 518.9
14 09:50 15.5 94 12.43 14.5 13 17 1013.1 0 27.7 31.9 55.0 145.1 149.1 516.0
14 09:40 14.5 94 11.69 13.5 11 13 1013.1 0 26.2 30.9 52.4 138.2 140.2 484.7
14 09:30 14.2 94 11.48 13.2 11 13 1013.1 0 25.8 30.7 51.7 136.2 137.7 475.9

Last Refresh: 15-Jun-2024 02:08:37

Bureau of Meteorology